sensor_id;sensor_type;location;lat;lon;timestamp;P1;durP1;ratioP1;P2;durP2;ratioP2
1416;SDS011;703;51.162;13.574;2024-02-23T00:00:30;1.70;;;1.60;;
1416;SDS011;703;51.162;13.574;2024-02-23T00:02:55;8.90;;;2.00;;
1416;SDS011;703;51.162;13.574;2024-02-23T00:05:23;2.27;;;1.93;;
1416;SDS011;703;51.162;13.574;2024-02-23T00:07:48;1.93;;;1.83;;
1416;SDS011;703;51.162;13.574;2024-02-23T00:10:14;1.50;;;1.40;;
1416;SDS011;703;51.162;13.574;2024-02-23T00:12:41;1.70;;;1.60;;
1416;SDS011;703;51.162;13.574;2024-02-23T00:15:08;1.93;;;1.83;;
1416;SDS011;703;51.162;13.574;2024-02-23T00:17:34;1.80;;;1.70;;
1416;SDS011;703;51.162;13.574;2024-02-23T00:20:00;1.60;;;1.50;;
1416;SDS011;703;51.162;13.574;2024-02-23T00:22:26;1.70;;;1.60;;
1416;SDS011;703;51.162;13.574;2024-02-23T00:24:52;3.20;;;1.87;;
1416;SDS011;703;51.162;13.574;2024-02-23T00:27:18;1.77;;;1.67;;
1416;SDS011;703;51.162;13.574;2024-02-23T00:29:44;2.10;;;2.00;;
1416;SDS011;703;51.162;13.574;2024-02-23T00:32:10;1.93;;;1.83;;
1416;SDS011;703;51.162;13.574;2024-02-23T00:34:36;1.80;;;1.70;;
1416;SDS011;703;51.162;13.574;2024-02-23T00:37:02;1.67;;;1.57;;
1416;SDS011;703;51.162;13.574;2024-02-23T00:39:28;2.10;;;2.00;;
1416;SDS011;703;51.162;13.574;2024-02-23T00:41:56;1.60;;;1.50;;
1416;SDS011;703;51.162;13.574;2024-02-23T00:44:22;1.50;;;1.40;;
1416;SDS011;703;51.162;13.574;2024-02-23T00:46:48;2.10;;;2.00;;
1416;SDS011;703;51.162;13.574;2024-02-23T00:49:14;2.10;;;2.00;;
1416;SDS011;703;51.162;13.574;2024-02-23T00:51:39;1.97;;;1.87;;
1416;SDS011;703;51.162;13.574;2024-02-23T00:54:05;3.73;;;2.17;;
1416;SDS011;703;51.162;13.574;2024-02-23T00:56:32;1.80;;;1.70;;
1416;SDS011;703;51.162;13.574;2024-02-23T00:58:58;4.23;;;1.90;;
1416;SDS011;703;51.162;13.574;2024-02-23T01:01:24;1.97;;;1.87;;
1416;SDS011;703;51.162;13.574;2024-02-23T01:03:51;2.00;;;1.90;;
1416;SDS011;703;51.162;13.574;2024-02-23T01:06:17;1.90;;;1.80;;
1416;SDS011;703;51.162;13.574;2024-02-23T01:08:43;2.17;;;2.07;;
1416;SDS011;703;51.162;13.574;2024-02-23T01:11:09;1.77;;;1.67;;
1416;SDS011;703;51.162;13.574;2024-02-23T01:13:35;1.80;;;1.70;;
1416;SDS011;703;51.162;13.574;2024-02-23T01:16:01;1.93;;;1.80;;
1416;SDS011;703;51.162;13.574;2024-02-23T01:18:27;2.33;;;2.23;;
1416;SDS011;703;51.162;13.574;2024-02-23T01:20:53;2.83;;;2.63;;
1416;SDS011;703;51.162;13.574;2024-02-23T01:23:19;2.20;;;2.00;;
1416;SDS011;703;51.162;13.574;2024-02-23T01:25:45;1.90;;;1.80;;
1416;SDS011;703;51.162;13.574;2024-02-23T01:28:10;1.57;;;1.47;;
1416;SDS011;703;51.162;13.574;2024-02-23T01:30:36;1.93;;;1.83;;
1416;SDS011;703;51.162;13.574;2024-02-23T01:33:02;2.00;;;1.90;;
1416;SDS011;703;51.162;13.574;2024-02-23T01:35:28;1.83;;;1.70;;
1416;SDS011;703;51.162;13.574;2024-02-23T01:37:55;9.43;;;2.17;;
1416;SDS011;703;51.162;13.574;2024-02-23T01:40:21;4.03;;;2.00;;
1416;SDS011;703;51.162;13.574;2024-02-23T01:42:46;2.00;;;1.90;;
1416;SDS011;703;51.162;13.574;2024-02-23T01:45:12;1.77;;;1.60;;
1416;SDS011;703;51.162;13.574;2024-02-23T01:47:38;2.17;;;2.07;;
1416;SDS011;703;51.162;13.574;2024-02-23T01:50:04;1.80;;;1.70;;
1416;SDS011;703;51.162;13.574;2024-02-23T01:52:32;1.67;;;1.57;;
1416;SDS011;703;51.162;13.574;2024-02-23T01:54:58;2.20;;;2.10;;
1416;SDS011;703;51.162;13.574;2024-02-23T01:57:25;1.53;;;1.43;;
1416;SDS011;703;51.162;13.574;2024-02-23T01:59:51;5.03;;;2.20;;
1416;SDS011;703;51.162;13.574;2024-02-23T02:02:17;1.83;;;1.73;;
1416;SDS011;703;51.162;13.574;2024-02-23T02:04:43;2.10;;;2.00;;
1416;SDS011;703;51.162;13.574;2024-02-23T02:07:09;4.90;;;1.93;;
1416;SDS011;703;51.162;13.574;2024-02-23T02:09:35;2.23;;;1.73;;
1416;SDS011;703;51.162;13.574;2024-02-23T02:12:01;1.70;;;1.60;;
1416;SDS011;703;51.162;13.574;2024-02-23T02:14:27;1.97;;;1.87;;
1416;SDS011;703;51.162;13.574;2024-02-23T02:16:56;2.20;;;2.10;;
1416;SDS011;703;51.162;13.574;2024-02-23T02:19:22;2.00;;;1.90;;
1416;SDS011;703;51.162;13.574;2024-02-23T02:21:48;1.80;;;1.70;;
1416;SDS011;703;51.162;13.574;2024-02-23T02:24:13;1.43;;;1.33;;
1416;SDS011;703;51.162;13.574;2024-02-23T02:26:39;2.00;;;1.90;;
1416;SDS011;703;51.162;13.574;2024-02-23T02:29:05;2.03;;;1.93;;
1416;SDS011;703;51.162;13.574;2024-02-23T02:31:31;2.33;;;2.13;;
1416;SDS011;703;51.162;13.574;2024-02-23T02:34:02;3.57;;;1.93;;
1416;SDS011;703;51.162;13.574;2024-02-23T02:36:28;4.50;;;2.47;;
1416;SDS011;703;51.162;13.574;2024-02-23T02:38:53;1.83;;;1.73;;
1416;SDS011;703;51.162;13.574;2024-02-23T02:41:19;2.17;;;2.07;;
1416;SDS011;703;51.162;13.574;2024-02-23T02:43:47;2.10;;;1.90;;
1416;SDS011;703;51.162;13.574;2024-02-23T02:46:13;2.07;;;1.97;;
1416;SDS011;703;51.162;13.574;2024-02-23T02:48:39;2.00;;;1.90;;
1416;SDS011;703;51.162;13.574;2024-02-23T02:51:05;2.00;;;1.90;;
1416;SDS011;703;51.162;13.574;2024-02-23T02:53:31;2.37;;;2.17;;
1416;SDS011;703;51.162;13.574;2024-02-23T02:55:57;3.33;;;2.20;;
1416;SDS011;703;51.162;13.574;2024-02-23T02:58:23;2.50;;;2.30;;
1416;SDS011;703;51.162;13.574;2024-02-23T03:00:49;13.00;;;2.37;;
1416;SDS011;703;51.162;13.574;2024-02-23T03:03:15;2.33;;;2.17;;
1416;SDS011;703;51.162;13.574;2024-02-23T03:05:41;2.23;;;2.10;;
1416;SDS011;703;51.162;13.574;2024-02-23T03:08:07;3.13;;;2.57;;
1416;SDS011;703;51.162;13.574;2024-02-23T03:10:34;2.17;;;1.97;;
1416;SDS011;703;51.162;13.574;2024-02-23T03:13:00;2.50;;;2.20;;
1416;SDS011;703;51.162;13.574;2024-02-23T03:15:25;1.93;;;1.83;;
1416;SDS011;703;51.162;13.574;2024-02-23T03:17:51;3.00;;;1.80;;
1416;SDS011;703;51.162;13.574;2024-02-23T03:20:19;1.80;;;1.70;;
1416;SDS011;703;51.162;13.574;2024-02-23T03:22:45;2.67;;;2.47;;
1416;SDS011;703;51.162;13.574;2024-02-23T03:25:11;2.80;;;2.60;;
1416;SDS011;703;51.162;13.574;2024-02-23T03:27:37;5.73;;;2.33;;
1416;SDS011;703;51.162;13.574;2024-02-23T03:30:06;2.07;;;1.97;;
1416;SDS011;703;51.162;13.574;2024-02-23T03:32:35;2.30;;;2.10;;
1416;SDS011;703;51.162;13.574;2024-02-23T03:35:05;1.80;;;1.70;;
1416;SDS011;703;51.162;13.574;2024-02-23T03:37:31;4.13;;;2.30;;
1416;SDS011;703;51.162;13.574;2024-02-23T03:39:57;2.60;;;2.50;;
1416;SDS011;703;51.162;13.574;2024-02-23T03:42:24;2.23;;;2.03;;
1416;SDS011;703;51.162;13.574;2024-02-23T03:44:50;2.53;;;2.40;;
1416;SDS011;703;51.162;13.574;2024-02-23T03:47:16;2.30;;;2.20;;
1416;SDS011;703;51.162;13.574;2024-02-23T03:49:42;2.57;;;2.40;;
1416;SDS011;703;51.162;13.574;2024-02-23T03:52:08;2.83;;;2.73;;
1416;SDS011;703;51.162;13.574;2024-02-23T03:54:34;2.40;;;2.30;;
1416;SDS011;703;51.162;13.574;2024-02-23T03:57:00;2.47;;;2.37;;
1416;SDS011;703;51.162;13.574;2024-02-23T03:59:26;2.07;;;1.97;;
1416;SDS011;703;51.162;13.574;2024-02-23T04:01:52;2.80;;;2.70;;
1416;SDS011;703;51.162;13.574;2024-02-23T04:04:17;3.13;;;2.93;;
1416;SDS011;703;51.162;13.574;2024-02-23T04:06:43;2.80;;;2.60;;
1416;SDS011;703;51.162;13.574;2024-02-23T04:09:09;2.40;;;2.30;;
1416;SDS011;703;51.162;13.574;2024-02-23T04:11:35;2.33;;;2.20;;
1416;SDS011;703;51.162;13.574;2024-02-23T04:14:01;2.40;;;2.30;;
1416;SDS011;703;51.162;13.574;2024-02-23T04:16:27;2.73;;;2.53;;
1416;SDS011;703;51.162;13.574;2024-02-23T04:18:53;2.93;;;2.60;;
1416;SDS011;703;51.162;13.574;2024-02-23T04:21:21;2.40;;;2.30;;
1416;SDS011;703;51.162;13.574;2024-02-23T04:23:47;2.87;;;2.60;;
1416;SDS011;703;51.162;13.574;2024-02-23T04:26:13;2.80;;;2.70;;
1416;SDS011;703;51.162;13.574;2024-02-23T04:28:39;10.00;;;2.70;;
1416;SDS011;703;51.162;13.574;2024-02-23T04:31:05;3.13;;;2.93;;
1416;SDS011;703;51.162;13.574;2024-02-23T04:33:31;2.40;;;2.30;;
1416;SDS011;703;51.162;13.574;2024-02-23T04:35:57;2.30;;;2.20;;
1416;SDS011;703;51.162;13.574;2024-02-23T04:38:23;2.50;;;2.40;;
1416;SDS011;703;51.162;13.574;2024-02-23T04:40:49;2.53;;;2.43;;
1416;SDS011;703;51.162;13.574;2024-02-23T04:43:15;3.10;;;2.80;;
1416;SDS011;703;51.162;13.574;2024-02-23T04:45:41;2.50;;;2.40;;
1416;SDS011;703;51.162;13.574;2024-02-23T04:48:07;2.67;;;2.53;;
1416;SDS011;703;51.162;13.574;2024-02-23T04:50:33;2.70;;;2.60;;
1416;SDS011;703;51.162;13.574;2024-02-23T04:52:59;2.50;;;2.40;;
1416;SDS011;703;51.162;13.574;2024-02-23T04:55:25;2.60;;;2.40;;
1416;SDS011;703;51.162;13.574;2024-02-23T04:57:51;3.13;;;2.83;;
1416;SDS011;703;51.162;13.574;2024-02-23T05:00:17;3.00;;;2.90;;
1416;SDS011;703;51.162;13.574;2024-02-23T05:02:43;4.70;;;2.87;;
1416;SDS011;703;51.162;13.574;2024-02-23T05:05:08;3.07;;;2.97;;
1416;SDS011;703;51.162;13.574;2024-02-23T05:07:34;3.40;;;3.20;;
1416;SDS011;703;51.162;13.574;2024-02-23T05:10:00;2.63;;;2.53;;
1416;SDS011;703;51.162;13.574;2024-02-23T05:12:26;3.30;;;3.10;;
1416;SDS011;703;51.162;13.574;2024-02-23T05:14:52;2.70;;;2.60;;
1416;SDS011;703;51.162;13.574;2024-02-23T05:17:18;2.63;;;2.43;;
1416;SDS011;703;51.162;13.574;2024-02-23T05:19:44;2.50;;;2.40;;
1416;SDS011;703;51.162;13.574;2024-02-23T05:22:11;3.13;;;2.93;;
1416;SDS011;703;51.162;13.574;2024-02-23T05:24:37;2.80;;;2.70;;
1416;SDS011;703;51.162;13.574;2024-02-23T05:27:03;3.27;;;3.07;;
1416;SDS011;703;51.162;13.574;2024-02-23T05:29:29;3.60;;;3.03;;
1416;SDS011;703;51.162;13.574;2024-02-23T05:31:55;3.30;;;3.10;;
1416;SDS011;703;51.162;13.574;2024-02-23T05:34:21;2.80;;;2.70;;
1416;SDS011;703;51.162;13.574;2024-02-23T05:36:47;3.33;;;3.13;;
1416;SDS011;703;51.162;13.574;2024-02-23T05:39:15;2.67;;;2.57;;
1416;SDS011;703;51.162;13.574;2024-02-23T05:41:42;2.93;;;2.80;;
1416;SDS011;703;51.162;13.574;2024-02-23T05:44:08;2.90;;;2.70;;
1416;SDS011;703;51.162;13.574;2024-02-23T05:46:35;2.57;;;2.47;;
1416;SDS011;703;51.162;13.574;2024-02-23T05:49:01;2.80;;;2.70;;
1416;SDS011;703;51.162;13.574;2024-02-23T05:51:28;2.80;;;2.70;;
1416;SDS011;703;51.162;13.574;2024-02-23T05:53:54;2.70;;;2.60;;
1416;SDS011;703;51.162;13.574;2024-02-23T05:56:20;3.03;;;2.93;;
1416;SDS011;703;51.162;13.574;2024-02-23T05:58:47;2.63;;;2.53;;
1416;SDS011;703;51.162;13.574;2024-02-23T06:01:12;4.97;;;3.20;;
1416;SDS011;703;51.162;13.574;2024-02-23T06:03:38;2.70;;;2.60;;
1416;SDS011;703;51.162;13.574;2024-02-23T06:06:07;3.30;;;3.10;;
1416;SDS011;703;51.162;13.574;2024-02-23T06:08:33;3.00;;;2.90;;
1416;SDS011;703;51.162;13.574;2024-02-23T06:11:00;2.63;;;2.53;;
1416;SDS011;703;51.162;13.574;2024-02-23T06:13:25;3.10;;;2.90;;
1416;SDS011;703;51.162;13.574;2024-02-23T06:15:51;2.87;;;2.77;;
1416;SDS011;703;51.162;13.574;2024-02-23T06:18:18;3.70;;;3.40;;
1416;SDS011;703;51.162;13.574;2024-02-23T06:20:44;2.53;;;2.43;;
1416;SDS011;703;51.162;13.574;2024-02-23T06:23:10;2.67;;;2.57;;
1416;SDS011;703;51.162;13.574;2024-02-23T06:25:36;2.87;;;2.77;;
1416;SDS011;703;51.162;13.574;2024-02-23T06:28:02;3.20;;;3.00;;
1416;SDS011;703;51.162;13.574;2024-02-23T06:30:28;5.00;;;4.80;;
1416;SDS011;703;51.162;13.574;2024-02-23T06:32:53;6.00;;;5.70;;
1416;SDS011;703;51.162;13.574;2024-02-23T06:35:19;5.47;;;5.27;;
1416;SDS011;703;51.162;13.574;2024-02-23T06:37:46;5.70;;;5.50;;
1416;SDS011;703;51.162;13.574;2024-02-23T06:40:12;6.17;;;5.93;;
1416;SDS011;703;51.162;13.574;2024-02-23T06:42:38;6.30;;;6.00;;
1416;SDS011;703;51.162;13.574;2024-02-23T06:45:04;6.60;;;6.30;;
1416;SDS011;703;51.162;13.574;2024-02-23T06:47:30;5.63;;;5.33;;
1416;SDS011;703;51.162;13.574;2024-02-23T06:49:59;6.40;;;6.00;;
1416;SDS011;703;51.162;13.574;2024-02-23T06:52:25;4.60;;;4.40;;
1416;SDS011;703;51.162;13.574;2024-02-23T06:54:51;5.63;;;5.43;;
1416;SDS011;703;51.162;13.574;2024-02-23T06:57:17;5.17;;;4.97;;
1416;SDS011;703;51.162;13.574;2024-02-23T06:59:43;5.50;;;5.20;;
1416;SDS011;703;51.162;13.574;2024-02-23T07:02:09;4.73;;;4.43;;
1416;SDS011;703;51.162;13.574;2024-02-23T07:04:35;5.23;;;4.93;;
1416;SDS011;703;51.162;13.574;2024-02-23T07:07:01;4.50;;;4.30;;
1416;SDS011;703;51.162;13.574;2024-02-23T07:09:32;5.30;;;5.00;;
1416;SDS011;703;51.162;13.574;2024-02-23T07:11:58;7.30;;;4.80;;
1416;SDS011;703;51.162;13.574;2024-02-23T07:14:24;5.17;;;4.87;;
1416;SDS011;703;51.162;13.574;2024-02-23T07:16:50;4.00;;;3.80;;
1416;SDS011;703;51.162;13.574;2024-02-23T07:19:19;4.47;;;4.23;;
1416;SDS011;703;51.162;13.574;2024-02-23T07:21:45;4.97;;;4.77;;
1416;SDS011;703;51.162;13.574;2024-02-23T07:24:11;5.00;;;4.70;;
1416;SDS011;703;51.162;13.574;2024-02-23T07:26:37;4.67;;;4.27;;
1416;SDS011;703;51.162;13.574;2024-02-23T07:29:03;5.87;;;5.30;;
1416;SDS011;703;51.162;13.574;2024-02-23T07:31:29;5.53;;;4.40;;
1416;SDS011;703;51.162;13.574;2024-02-23T07:33:55;5.10;;;4.90;;
1416;SDS011;703;51.162;13.574;2024-02-23T07:36:21;4.30;;;4.10;;
1416;SDS011;703;51.162;13.574;2024-02-23T07:38:47;5.13;;;4.83;;
1416;SDS011;703;51.162;13.574;2024-02-23T07:41:14;3.80;;;3.70;;
1416;SDS011;703;51.162;13.574;2024-02-23T07:43:40;4.70;;;4.50;;
1416;SDS011;703;51.162;13.574;2024-02-23T07:46:06;4.90;;;4.57;;
1416;SDS011;703;51.162;13.574;2024-02-23T07:48:34;4.77;;;4.53;;
1416;SDS011;703;51.162;13.574;2024-02-23T07:51:00;8.00;;;5.00;;
1416;SDS011;703;51.162;13.574;2024-02-23T07:53:26;5.10;;;4.90;;
1416;SDS011;703;51.162;13.574;2024-02-23T07:55:52;5.50;;;5.30;;
1416;SDS011;703;51.162;13.574;2024-02-23T07:58:18;4.60;;;4.40;;
1416;SDS011;703;51.162;13.574;2024-02-23T08:00:44;5.17;;;4.97;;
1416;SDS011;703;51.162;13.574;2024-02-23T08:03:11;4.90;;;4.70;;
1416;SDS011;703;51.162;13.574;2024-02-23T08:05:37;5.53;;;5.23;;
1416;SDS011;703;51.162;13.574;2024-02-23T08:08:04;5.40;;;5.00;;
1416;SDS011;703;51.162;13.574;2024-02-23T08:10:31;4.63;;;4.43;;
1416;SDS011;703;51.162;13.574;2024-02-23T08:12:58;5.27;;;5.07;;
1416;SDS011;703;51.162;13.574;2024-02-23T08:15:25;4.77;;;4.57;;
1416;SDS011;703;51.162;13.574;2024-02-23T08:17:51;4.30;;;4.10;;
1416;SDS011;703;51.162;13.574;2024-02-23T08:20:20;4.60;;;4.40;;
1416;SDS011;703;51.162;13.574;2024-02-23T08:22:55;4.50;;;4.30;;
1416;SDS011;703;51.162;13.574;2024-02-23T08:25:21;4.97;;;4.77;;
1416;SDS011;703;51.162;13.574;2024-02-23T08:27:47;3.57;;;3.47;;
1416;SDS011;703;51.162;13.574;2024-02-23T08:30:14;4.80;;;4.60;;
1416;SDS011;703;51.162;13.574;2024-02-23T08:32:40;4.77;;;4.57;;
1416;SDS011;703;51.162;13.574;2024-02-23T08:35:09;5.17;;;4.87;;
1416;SDS011;703;51.162;13.574;2024-02-23T08:37:35;4.53;;;4.33;;
1416;SDS011;703;51.162;13.574;2024-02-23T08:40:01;4.80;;;4.60;;
1416;SDS011;703;51.162;13.574;2024-02-23T08:42:28;6.50;;;6.00;;
1416;SDS011;703;51.162;13.574;2024-02-23T08:44:54;5.20;;;4.80;;
1416;SDS011;703;51.162;13.574;2024-02-23T08:47:20;4.50;;;4.30;;
1416;SDS011;703;51.162;13.574;2024-02-23T08:49:46;5.20;;;4.90;;
1416;SDS011;703;51.162;13.574;2024-02-23T08:52:12;7.37;;;6.87;;
1416;SDS011;703;51.162;13.574;2024-02-23T08:54:38;5.10;;;4.90;;
1416;SDS011;703;51.162;13.574;2024-02-23T08:57:04;6.90;;;6.47;;
1416;SDS011;703;51.162;13.574;2024-02-23T08:59:30;4.63;;;4.43;;
1416;SDS011;703;51.162;13.574;2024-02-23T09:01:57;8.27;;;7.67;;
1416;SDS011;703;51.162;13.574;2024-02-23T09:04:23;7.37;;;5.57;;
1416;SDS011;703;51.162;13.574;2024-02-23T09:06:49;6.00;;;5.60;;
1416;SDS011;703;51.162;13.574;2024-02-23T09:09:16;6.00;;;5.70;;
1416;SDS011;703;51.162;13.574;2024-02-23T09:11:42;7.80;;;7.40;;
1416;SDS011;703;51.162;13.574;2024-02-23T09:14:08;6.97;;;6.67;;
1416;SDS011;703;51.162;13.574;2024-02-23T09:16:34;7.50;;;6.93;;
1416;SDS011;703;51.162;13.574;2024-02-23T09:19:00;6.53;;;6.23;;
1416;SDS011;703;51.162;13.574;2024-02-23T09:21:26;6.93;;;6.63;;
1416;SDS011;703;51.162;13.574;2024-02-23T09:23:52;7.33;;;6.60;;
1416;SDS011;703;51.162;13.574;2024-02-23T09:26:19;7.77;;;7.30;;
1416;SDS011;703;51.162;13.574;2024-02-23T09:28:45;8.23;;;7.77;;
1416;SDS011;703;51.162;13.574;2024-02-23T09:31:11;6.80;;;6.50;;
1416;SDS011;703;51.162;13.574;2024-02-23T09:33:40;6.97;;;6.63;;
1416;SDS011;703;51.162;13.574;2024-02-23T09:36:06;6.13;;;5.67;;
1416;SDS011;703;51.162;13.574;2024-02-23T09:38:32;7.83;;;6.43;;
1416;SDS011;703;51.162;13.574;2024-02-23T09:40:58;6.40;;;6.10;;
1416;SDS011;703;51.162;13.574;2024-02-23T09:43:26;7.60;;;7.20;;
1416;SDS011;703;51.162;13.574;2024-02-23T09:45:53;6.60;;;6.30;;
1416;SDS011;703;51.162;13.574;2024-02-23T09:48:19;7.00;;;6.60;;
1416;SDS011;703;51.162;13.574;2024-02-23T09:50:47;6.30;;;6.00;;
1416;SDS011;703;51.162;13.574;2024-02-23T09:53:13;8.60;;;8.10;;
1416;SDS011;703;51.162;13.574;2024-02-23T09:55:40;6.30;;;5.97;;
1416;SDS011;703;51.162;13.574;2024-02-23T09:58:06;6.23;;;6.03;;
1416;SDS011;703;51.162;13.574;2024-02-23T10:00:34;6.87;;;6.50;;
1416;SDS011;703;51.162;13.574;2024-02-23T10:03:05;7.17;;;6.80;;
1416;SDS011;703;51.162;13.574;2024-02-23T10:05:31;5.73;;;5.53;;
1416;SDS011;703;51.162;13.574;2024-02-23T10:07:57;7.57;;;6.97;;
1416;SDS011;703;51.162;13.574;2024-02-23T10:10:33;6.00;;;5.80;;
1416;SDS011;703;51.162;13.574;2024-02-23T10:12:59;7.03;;;6.37;;
1416;SDS011;703;51.162;13.574;2024-02-23T10:15:25;8.10;;;7.60;;
1416;SDS011;703;51.162;13.574;2024-02-23T10:17:51;6.67;;;6.17;;
1416;SDS011;703;51.162;13.574;2024-02-23T10:20:19;8.80;;;8.10;;
1416;SDS011;703;51.162;13.574;2024-02-23T10:22:45;10.07;;;9.13;;
1416;SDS011;703;51.162;13.574;2024-02-23T10:25:11;7.37;;;6.97;;
1416;SDS011;703;51.162;13.574;2024-02-23T10:27:38;7.43;;;7.03;;
1416;SDS011;703;51.162;13.574;2024-02-23T10:30:04;7.27;;;6.77;;
1416;SDS011;703;51.162;13.574;2024-02-23T10:32:30;6.83;;;6.53;;
1416;SDS011;703;51.162;13.574;2024-02-23T10:34:56;7.73;;;7.27;;
1416;SDS011;703;51.162;13.574;2024-02-23T10:37:24;6.73;;;6.30;;
1416;SDS011;703;51.162;13.574;2024-02-23T10:39:50;14.90;;;13.53;;
1416;SDS011;703;51.162;13.574;2024-02-23T10:42:19;11.17;;;10.20;;
1416;SDS011;703;51.162;13.574;2024-02-23T10:44:49;6.70;;;6.40;;
1416;SDS011;703;51.162;13.574;2024-02-23T10:47:15;7.47;;;7.17;;
1416;SDS011;703;51.162;13.574;2024-02-23T10:49:41;7.10;;;6.70;;
1416;SDS011;703;51.162;13.574;2024-02-23T10:52:07;7.57;;;7.27;;
1416;SDS011;703;51.162;13.574;2024-02-23T10:54:37;6.30;;;6.00;;
1416;SDS011;703;51.162;13.574;2024-02-23T10:57:03;6.87;;;6.57;;
1416;SDS011;703;51.162;13.574;2024-02-23T10:59:29;7.73;;;7.43;;
1416;SDS011;703;51.162;13.574;2024-02-23T11:01:55;7.17;;;6.93;;
1416;SDS011;703;51.162;13.574;2024-02-23T11:04:24;6.80;;;6.60;;
1416;SDS011;703;51.162;13.574;2024-02-23T11:06:51;7.20;;;6.90;;
1416;SDS011;703;51.162;13.574;2024-02-23T11:09:20;8.00;;;7.60;;
1416;SDS011;703;51.162;13.574;2024-02-23T11:11:53;7.10;;;6.70;;
1416;SDS011;703;51.162;13.574;2024-02-23T11:14:28;12.90;;;8.90;;
1416;SDS011;703;51.162;13.574;2024-02-23T11:16:55;6.90;;;6.40;;
1416;SDS011;703;51.162;13.574;2024-02-23T11:19:21;8.30;;;7.57;;
1416;SDS011;703;51.162;13.574;2024-02-23T11:21:57;6.73;;;6.43;;
1416;SDS011;703;51.162;13.574;2024-02-23T11:24:25;7.73;;;7.43;;
1416;SDS011;703;51.162;13.574;2024-02-23T11:26:55;8.00;;;7.70;;
1416;SDS011;703;51.162;13.574;2024-02-23T11:29:21;10.97;;;6.60;;
1416;SDS011;703;51.162;13.574;2024-02-23T11:31:47;7.20;;;6.90;;
1416;SDS011;703;51.162;13.574;2024-02-23T11:34:13;6.23;;;5.93;;
1416;SDS011;703;51.162;13.574;2024-02-23T11:36:39;6.83;;;6.53;;
1416;SDS011;703;51.162;13.574;2024-02-23T11:39:05;7.60;;;6.57;;
1416;SDS011;703;51.162;13.574;2024-02-23T11:41:31;7.50;;;7.00;;
1416;SDS011;703;51.162;13.574;2024-02-23T11:43:57;7.13;;;6.83;;
1416;SDS011;703;51.162;13.574;2024-02-23T11:46:23;7.00;;;6.60;;
1416;SDS011;703;51.162;13.574;2024-02-23T11:48:49;6.90;;;6.60;;
1416;SDS011;703;51.162;13.574;2024-02-23T11:51:19;6.70;;;6.50;;
1416;SDS011;703;51.162;13.574;2024-02-23T11:53:46;6.90;;;6.60;;
1416;SDS011;703;51.162;13.574;2024-02-23T11:56:12;7.37;;;7.07;;
1416;SDS011;703;51.162;13.574;2024-02-23T11:58:39;6.73;;;6.33;;
1416;SDS011;703;51.162;13.574;2024-02-23T12:01:05;6.67;;;6.37;;
1416;SDS011;703;51.162;13.574;2024-02-23T12:03:32;6.57;;;6.17;;
1416;SDS011;703;51.162;13.574;2024-02-23T12:05:58;6.30;;;6.00;;
1416;SDS011;703;51.162;13.574;2024-02-23T12:08:25;6.90;;;6.70;;
1416;SDS011;703;51.162;13.574;2024-02-23T12:10:52;6.40;;;6.20;;
1416;SDS011;703;51.162;13.574;2024-02-23T12:13:18;6.50;;;6.10;;
1416;SDS011;703;51.162;13.574;2024-02-23T12:15:44;7.10;;;6.80;;
1416;SDS011;703;51.162;13.574;2024-02-23T12:18:10;6.93;;;6.50;;
1416;SDS011;703;51.162;13.574;2024-02-23T12:20:36;7.00;;;6.70;;
1416;SDS011;703;51.162;13.574;2024-02-23T12:23:02;6.83;;;6.53;;
1416;SDS011;703;51.162;13.574;2024-02-23T12:25:28;8.10;;;6.23;;
1416;SDS011;703;51.162;13.574;2024-02-23T12:27:55;7.10;;;6.80;;
1416;SDS011;703;51.162;13.574;2024-02-23T12:30:25;6.70;;;6.40;;
1416;SDS011;703;51.162;13.574;2024-02-23T12:32:51;6.53;;;6.23;;
1416;SDS011;703;51.162;13.574;2024-02-23T12:35:17;6.57;;;6.37;;
1416;SDS011;703;51.162;13.574;2024-02-23T12:37:43;6.87;;;6.57;;
1416;SDS011;703;51.162;13.574;2024-02-23T12:40:10;6.90;;;6.60;;
1416;SDS011;703;51.162;13.574;2024-02-23T12:42:36;6.27;;;5.90;;
1416;SDS011;703;51.162;13.574;2024-02-23T12:45:02;6.93;;;6.47;;
1416;SDS011;703;51.162;13.574;2024-02-23T12:47:28;5.80;;;5.50;;
1416;SDS011;703;51.162;13.574;2024-02-23T12:49:54;6.40;;;6.20;;
1416;SDS011;703;51.162;13.574;2024-02-23T12:52:20;6.60;;;6.30;;
1416;SDS011;703;51.162;13.574;2024-02-23T12:54:45;6.60;;;6.40;;
1416;SDS011;703;51.162;13.574;2024-02-23T12:57:11;6.70;;;6.40;;
1416;SDS011;703;51.162;13.574;2024-02-23T12:59:37;7.43;;;7.03;;
1416;SDS011;703;51.162;13.574;2024-02-23T13:02:04;7.73;;;7.23;;
1416;SDS011;703;51.162;13.574;2024-02-23T13:04:31;6.87;;;6.57;;
1416;SDS011;703;51.162;13.574;2024-02-23T13:06:57;6.80;;;6.50;;
1416;SDS011;703;51.162;13.574;2024-02-23T13:09:23;6.13;;;5.83;;
1416;SDS011;703;51.162;13.574;2024-02-23T13:11:49;6.83;;;6.43;;
1416;SDS011;703;51.162;13.574;2024-02-23T13:14:15;6.43;;;6.13;;
1416;SDS011;703;51.162;13.574;2024-02-23T13:16:41;7.30;;;6.80;;
1416;SDS011;703;51.162;13.574;2024-02-23T13:19:07;6.67;;;6.37;;
1416;SDS011;703;51.162;13.574;2024-02-23T13:21:34;6.17;;;5.90;;
1416;SDS011;703;51.162;13.574;2024-02-23T13:24:00;7.60;;;7.30;;
1416;SDS011;703;51.162;13.574;2024-02-23T13:26:26;6.37;;;6.07;;
1416;SDS011;703;51.162;13.574;2024-02-23T13:28:52;6.40;;;6.20;;
1416;SDS011;703;51.162;13.574;2024-02-23T13:31:17;6.30;;;6.00;;
1416;SDS011;703;51.162;13.574;2024-02-23T13:33:44;6.40;;;6.20;;
1416;SDS011;703;51.162;13.574;2024-02-23T13:36:10;7.10;;;6.80;;
1416;SDS011;703;51.162;13.574;2024-02-23T13:38:36;6.50;;;6.20;;
1416;SDS011;703;51.162;13.574;2024-02-23T13:41:04;6.00;;;5.80;;
1416;SDS011;703;51.162;13.574;2024-02-23T13:43:30;6.23;;;6.03;;
1416;SDS011;703;51.162;13.574;2024-02-23T13:45:58;7.47;;;6.80;;
1416;SDS011;703;51.162;13.574;2024-02-23T13:48:24;8.77;;;7.70;;
1416;SDS011;703;51.162;13.574;2024-02-23T13:50:50;6.97;;;6.67;;
1416;SDS011;703;51.162;13.574;2024-02-23T13:53:16;7.00;;;6.70;;
1416;SDS011;703;51.162;13.574;2024-02-23T13:55:42;6.70;;;6.40;;
1416;SDS011;703;51.162;13.574;2024-02-23T13:58:09;6.17;;;5.97;;
1416;SDS011;703;51.162;13.574;2024-02-23T14:00:35;6.43;;;6.13;;
1416;SDS011;703;51.162;13.574;2024-02-23T14:03:01;7.47;;;7.07;;
1416;SDS011;703;51.162;13.574;2024-02-23T14:05:27;7.40;;;7.07;;
1416;SDS011;703;51.162;13.574;2024-02-23T14:07:53;6.53;;;6.10;;
1416;SDS011;703;51.162;13.574;2024-02-23T14:10:19;6.73;;;6.43;;
1416;SDS011;703;51.162;13.574;2024-02-23T14:12:45;7.10;;;6.70;;
1416;SDS011;703;51.162;13.574;2024-02-23T14:15:11;8.50;;;8.00;;
1416;SDS011;703;51.162;13.574;2024-02-23T14:17:40;7.60;;;7.13;;
1416;SDS011;703;51.162;13.574;2024-02-23T14:20:06;8.50;;;8.10;;
1416;SDS011;703;51.162;13.574;2024-02-23T14:22:32;6.57;;;6.27;;
1416;SDS011;703;51.162;13.574;2024-02-23T14:24:58;6.60;;;6.20;;
1416;SDS011;703;51.162;13.574;2024-02-23T14:27:24;6.17;;;5.97;;
1416;SDS011;703;51.162;13.574;2024-02-23T14:29:51;6.37;;;6.13;;
1416;SDS011;703;51.162;13.574;2024-02-23T14:32:17;21.83;;;7.17;;
1416;SDS011;703;51.162;13.574;2024-02-23T14:34:44;7.47;;;6.40;;
1416;SDS011;703;51.162;13.574;2024-02-23T14:37:10;7.37;;;6.63;;
1416;SDS011;703;51.162;13.574;2024-02-23T14:39:36;6.73;;;6.43;;
1416;SDS011;703;51.162;13.574;2024-02-23T14:42:02;6.27;;;5.97;;
1416;SDS011;703;51.162;13.574;2024-02-23T14:44:28;6.60;;;6.30;;
1416;SDS011;703;51.162;13.574;2024-02-23T14:46:54;7.20;;;6.70;;
1416;SDS011;703;51.162;13.574;2024-02-23T14:49:20;7.43;;;6.77;;
1416;SDS011;703;51.162;13.574;2024-02-23T14:51:47;7.00;;;6.50;;
1416;SDS011;703;51.162;13.574;2024-02-23T14:54:13;7.20;;;6.70;;
1416;SDS011;703;51.162;13.574;2024-02-23T14:56:39;7.87;;;7.37;;
1416;SDS011;703;51.162;13.574;2024-02-23T14:59:08;8.23;;;7.83;;
1416;SDS011;703;51.162;13.574;2024-02-23T15:01:36;7.53;;;7.07;;
1416;SDS011;703;51.162;13.574;2024-02-23T15:04:02;7.20;;;6.90;;
1416;SDS011;703;51.162;13.574;2024-02-23T15:06:29;7.23;;;6.83;;
1416;SDS011;703;51.162;13.574;2024-02-23T15:08:54;6.10;;;5.70;;